Time;durP1;ratioP1;P1;durP2;ratioP2;P2;SDS_P1;SDS_P2;PMS_P1;PMS_P2;Temp;Humidity;BMP_temperature;BMP_pressure;BME280_temperature;BME280_humidity;BME280_pressure;Samples;Min_cycle;Max_cycle;Signal;HPM_P1;HPM_P2
2023/01/31 00:01:23;;;;;;;6.53;4.18;;;;;;;0.10;100.00;96695.59;5097780;28;24437;-74
2023/01/31 00:03:53;;;;;;;7.88;3.60;;;;;;;0.17;100.00;96694.69;5089669;28;24433;-73
2023/01/31 00:06:22;;;;;;;9.32;4.05;;;;;;;0.11;100.00;96699.84;5091117;28;25002;-73
2023/01/31 00:08:50;;;;;;;8.45;3.97;;;;;;;0.11;100.00;96697.31;5100626;28;24419;-73
2023/01/31 00:11:20;;;;;;;7.80;4.43;;;;;;;0.10;100.00;96698.16;5101728;28;24441;-73
2023/01/31 00:13:48;;;;;;;10.20;5.97;;;;;;;0.10;100.00;96698.16;5101871;28;24449;-74
2023/01/31 00:16:15;;;;;;;13.82;6.88;;;;;;;0.06;100.00;96693.09;5095386;28;24433;-74
2023/01/31 00:18:43;;;;;;;10.57;5.47;;;;;;;0.00;100.00;96688.91;5105160;28;24456;-74
2023/01/31 00:21:11;;;;;;;6.00;4.20;;;;;;;0.06;100.00;96691.38;5095742;28;24441;-73
2023/01/31 00:23:39;;;;;;;12.00;5.72;;;;;;;0.04;100.00;96693.13;5102355;28;24437;-74
2023/01/31 00:26:15;;;;;;;10.20;4.25;;;;;;;0.06;100.00;96690.53;5087984;28;24802;-74
2023/01/31 00:28:42;;;;;;;7.72;4.68;;;;;;;-0.01;100.00;96699.91;5090920;28;24650;-73
2023/01/31 00:31:11;;;;;;;10.20;4.57;;;;;;;0.04;100.00;96697.34;5099557;28;24433;-74
2023/01/31 00:33:40;;;;;;;7.80;4.13;;;;;;;0.06;100.00;96703.28;5101915;28;24434;-74
2023/01/31 00:36:09;;;;;;;7.55;3.72;;;;;;;0.06;100.00;96693.94;5091996;28;24445;-73
2023/01/31 00:38:35;;;;;;;6.35;3.22;;;;;;;0.12;100.00;96698.16;5105108;28;24452;-74
2023/01/31 00:41:03;;;;;;;7.03;4.10;;;;;;;0.15;100.00;96693.00;5104880;28;24524;-74
2023/01/31 00:43:30;;;;;;;6.47;3.60;;;;;;;0.11;100.00;96697.31;5103951;28;24937;-73
2023/01/31 00:45:57;;;;;;;8.48;3.83;;;;;;;0.06;100.00;96693.94;5105154;28;24803;-74
2023/01/31 00:48:26;;;;;;;13.45;4.05;;;;;;;0.01;100.00;96677.00;5102208;28;24516;-74
2023/01/31 00:50:52;;;;;;;8.38;3.75;;;;;;;0.03;100.00;96671.03;5107674;28;24989;-74
2023/01/31 00:53:22;;;;;;;7.20;3.80;;;;;;;0.03;100.00;96665.09;5081953;28;24998;-74
2023/01/31 00:55:49;;;;;;;7.28;3.90;;;;;;;-0.04;100.00;96670.25;5101021;28;24440;-74
2023/01/31 00:58:16;;;;;;;7.60;3.80;;;;;;;-0.07;100.00;96677.91;5100904;28;25193;-73
2023/01/31 01:00:42;;;;;;;12.55;4.63;;;;;;;-0.11;100.00;96676.22;5101380;28;24452;-74
2023/01/31 01:03:09;;;;;;;10.00;4.20;;;;;;;-0.13;100.00;96675.38;5101867;28;24446;-74
2023/01/31 01:05:37;;;;;;;9.43;4.22;;;;;;;-0.04;100.00;96677.88;5095323;28;24433;-74
2023/01/31 01:08:03;;;;;;;5.47;3.20;;;;;;;-0.01;100.00;96684.63;5104901;28;24433;-74
2023/01/31 01:10:29;;;;;;;7.85;3.80;;;;;;;-0.12;100.00;96671.97;5087743;28;24426;-74
2023/01/31 01:12:56;;;;;;;7.88;3.65;;;;;;;-0.16;100.00;96679.66;5096773;28;24434;-74
2023/01/31 01:15:22;;;;;;;9.45;3.80;;;;;;;-0.17;100.00;96675.41;5098450;28;24975;-73
2023/01/31 01:17:49;;;;;;;6.65;3.50;;;;;;;-0.18;100.00;96676.28;5086404;28;24434;-73
2023/01/31 01:20:17;;;;;;;8.73;3.67;;;;;;;-0.15;100.00;96666.94;5102212;28;24457;-74
2023/01/31 01:22:44;;;;;;;6.88;3.85;;;;;;;-0.19;100.00;96677.13;5080079;28;24430;-73
2023/01/31 01:25:11;;;;;;;9.43;4.18;;;;;;;-0.20;100.00;96668.63;5101119;28;24433;-74
2023/01/31 01:27:37;;;;;;;6.95;3.75;;;;;;;-0.18;100.00;96668.66;5098226;28;24442;-73
2023/01/31 01:30:06;;;;;;;6.95;3.25;;;;;;;-0.12;100.00;96668.59;5094110;28;24439;-73
2023/01/31 01:32:33;;;;;;;7.50;3.58;;;;;;;-0.06;100.00;96669.41;5104705;28;24503;-73
2023/01/31 01:34:59;;;;;;;7.95;3.90;;;;;;;-0.11;100.00;96676.22;5098081;28;24442;-73
2023/01/31 01:37:26;;;;;;;15.07;3.90;;;;;;;-0.13;100.00;96672.00;5105584;28;24433;-74
2023/01/31 01:39:53;;;;;;;7.32;3.65;;;;;;;-0.08;100.00;96667.72;5092765;28;24451;-73
2023/01/31 01:42:22;;;;;;;7.07;3.75;;;;;;;-0.10;100.00;96662.63;5089410;28;24441;-73
2023/01/31 01:44:51;;;;;;;6.97;3.65;;;;;;;-0.13;100.00;96665.19;5100405;28;24445;-73
2023/01/31 01:47:35;;;;;;;8.50;3.63;;;;;;;-0.08;100.00;96660.06;5087113;28;24566;-73
2023/01/31 01:50:07;;;;;;;8.07;3.73;;;;;;;-0.06;100.00;96666.00;5092960;28;25179;-74
2023/01/31 01:52:40;;;;;;;11.00;3.67;;;;;;;-0.03;100.00;96663.44;5107932;28;24795;-74
2023/01/31 01:55:14;;;;;;;6.00;2.95;;;;;;;0.02;100.00;96666.78;5098113;28;24441;-74
2023/01/31 01:57:45;;;;;;;8.30;3.63;;;;;;;-0.07;100.00;96665.16;5104176;28;24426;-74
2023/01/31 02:00:15;;;;;;;8.77;3.85;;;;;;;-0.06;100.00;96666.00;5096315;28;24473;-74
2023/01/31 02:02:43;;;;;;;7.28;3.53;;;;;;;0.00;100.00;96673.63;5103037;28;25074;-74
2023/01/31 02:05:13;;;;;;;6.38;3.53;;;;;;;0.06;100.00;96665.91;5099566;28;24433;-74
2023/01/31 02:07:39;;;;;;;6.88;4.00;;;;;;;-0.03;100.00;96671.09;5101441;28;24436;-73
2023/01/31 02:10:14;;;;;;;8.95;4.10;;;;;;;0.03;100.00;96667.63;5099757;28;24437;-73
2023/01/31 02:12:41;;;;;;;10.43;4.38;;;;;;;-0.02;100.00;96668.53;5098977;28;24436;-74
2023/01/31 02:15:09;;;;;;;9.68;4.13;;;;;;;-0.02;100.00;96658.31;5100833;28;24421;-73
2023/01/31 02:17:35;;;;;;;12.77;4.55;;;;;;;-0.07;100.00;96664.31;5105824;28;24436;-74
2023/01/31 02:20:17;;;;;;;12.02;4.07;;;;;;;-0.11;100.00;96662.63;5097541;28;24457;-74
2023/01/31 02:22:53;;;;;;;10.20;4.57;;;;;;;-0.14;100.00;96662.69;5093352;28;24429;-73
2023/01/31 02:25:55;;;;;;;9.38;4.30;;;;;;;-0.15;100.00;96659.28;5106667;28;24429;-74
2023/01/31 02:28:46;;;;;;;13.53;6.87;;;;;;;-0.20;100.00;96667.78;5094176;28;24445;-74
2023/01/31 02:31:52;;;;;;;13.93;6.68;;;;;;;-0.24;100.00;96677.16;5101856;28;24429;-74
2023/01/31 02:34:25;;;;;;;15.73;6.15;;;;;;;-0.35;100.00;96668.72;5100241;28;24448;-74
2023/01/31 02:37:02;;;;;;;11.13;4.35;;;;;;;-0.33;100.00;96672.13;5089276;28;24431;-74
2023/01/31 02:39:36;;;;;;;8.23;3.97;;;;;;;-0.37;100.00;96678.94;5084850;28;25099;-74
2023/01/31 02:42:12;;;;;;;9.23;4.50;;;;;;;-0.39;100.00;96678.09;5099466;28;24430;-74
2023/01/31 02:45:03;;;;;;;11.52;4.60;;;;;;;-0.33;100.00;96678.06;5101945;28;24442;-74
2023/01/31 02:47:40;;;;;;;10.80;5.22;;;;;;;-0.11;100.00;96680.44;5098933;28;24764;-74
2023/01/31 02:50:14;;;;;;;12.40;5.28;;;;;;;0.06;100.00;96685.44;5084153;28;24435;-73
2023/01/31 02:52:46;;;;;;;11.35;4.90;;;;;;;0.33;100.00;96686.94;5090670;28;24436;-74
2023/01/31 02:58:05;;;;;;;16.75;5.72;;;;;;;0.38;100.00;96678.41;5098882;28;24765;-74
2023/01/31 03:00:34;;;;;;;18.70;5.30;;;;;;;0.34;100.00;96678.47;5079704;28;24458;-74
2023/01/31 03:03:03;;;;;;;13.32;5.20;;;;;;;0.35;100.00;96678.44;5089809;28;24438;-74
2023/01/31 03:05:31;;;;;;;15.20;4.90;;;;;;;0.37;100.00;96680.94;5096870;28;24793;-73
2023/01/31 03:08:00;;;;;;;14.63;5.85;;;;;;;0.23;100.00;96684.47;5089662;28;24438;-74
2023/01/31 03:10:57;;;;;;;14.47;5.90;;;;;;;0.26;100.00;96682.75;5090100;28;24434;-74
2023/01/31 03:13:47;;;;;;;18.40;5.57;;;;;;;0.23;100.00;96681.09;5091226;28;24502;-74
2023/01/31 03:19:16;;;;;;;15.10;5.18;;;;;;;0.22;100.00;96687.00;5101792;28;24966;-74
2023/01/31 03:21:47;;;;;;;13.77;4.60;;;;;;;0.19;100.00;96680.25;5100573;28;24428;-74
2023/01/31 03:24:17;;;;;;;21.30;5.05;;;;;;;0.20;100.00;96671.75;5097741;28;24970;-74
2023/01/31 03:26:44;;;;;;;12.35;4.78;;;;;;;0.14;100.00;96676.03;5095192;28;24994;-75
2023/01/31 03:29:15;;;;;;;11.70;4.82;;;;;;;0.10;100.00;96677.75;5097524;28;24800;-74
2023/01/31 03:31:45;;;;;;;12.90;4.85;;;;;;;0.08;100.00;96676.94;5098954;28;24979;-74
2023/01/31 03:34:15;;;;;;;11.30;4.88;;;;;;;0.04;100.00;96680.38;5104201;28;25022;-74
2023/01/31 03:36:52;;;;;;;12.43;4.65;;;;;;;0.01;100.00;96699.94;5098840;28;24442;-74
2023/01/31 03:39:28;;;;;;;12.77;5.10;;;;;;;0.01;100.00;96692.28;5102921;28;24434;-74
2023/01/31 03:42:01;;;;;;;12.35;4.55;;;;;;;-0.01;100.00;96689.72;5096231;28;24437;-74
2023/01/31 03:44:39;;;;;;;12.65;4.90;;;;;;;-0.04;100.00;96692.28;5100440;28;24438;-74
2023/01/31 03:47:11;;;;;;;14.37;5.43;;;;;;;-0.11;100.00;96699.16;5100017;28;24432;-74
2023/01/31 03:49:41;;;;;;;13.90;5.18;;;;;;;-0.10;100.00;96698.28;5095021;28;24432;-74
2023/01/31 03:52:12;;;;;;;12.30;4.55;;;;;;;-0.10;100.00;96700.00;5101120;28;24434;-74
2023/01/31 03:54:44;;;;;;;11.13;4.60;;;;;;;-0.15;100.00;96707.66;5093405;28;24434;-74
2023/01/31 03:57:16;;;;;;;11.48;5.57;;;;;;;-0.11;100.00;96699.16;5103848;28;24426;-74
2023/01/31 03:59:46;;;;;;;15.98;9.57;;;;;;;-0.21;100.00;96706.84;5098873;28;24453;-73
2023/01/31 04:02:16;;;;;;;15.75;7.68;;;;;;;-0.22;100.00;96702.59;5098099;28;24433;-74
2023/01/31 04:04:48;;;;;;;12.27;5.38;;;;;;;-0.22;100.00;96698.38;5095590;28;24441;-74
2023/01/31 04:07:17;;;;;;;13.15;5.38;;;;;;;-0.25;100.00;96706.84;5092835;28;24453;-73
2023/01/31 04:09:44;;;;;;;10.35;4.80;;;;;;;-0.25;100.00;96701.75;5091466;28;24458;-75
2023/01/31 04:12:13;;;;;;;14.05;4.82;;;;;;;-0.30;100.00;96716.22;5098093;28;25073;-74
2023/01/31 04:14:40;;;;;;;9.32;4.78;;;;;;;-0.26;100.00;96717.91;5090081;28;24430;-74
2023/01/31 04:17:06;;;;;;;7.28;3.75;;;;;;;-0.28;100.00;96717.06;5099094;28;24430;-74
2023/01/31 04:19:33;;;;;;;10.73;4.30;;;;;;;-0.26;100.00;96723.00;5092405;28;24485;-73
2023/01/31 04:21:59;;;;;;;7.90;4.18;;;;;;;-0.27;100.00;96722.97;5099735;28;24987;-73
2023/01/31 04:24:27;;;;;;;11.00;4.35;;;;;;;-0.20;100.00;96716.16;5094162;28;24442;-73
2023/01/31 04:26:54;;;;;;;7.43;3.72;;;;;;;-0.18;100.00;96715.31;5103051;28;24519;-73
2023/01/31 04:29:20;;;;;;;8.63;3.92;;;;;;;-0.18;100.00;96714.47;5096801;28;24434;-73
2023/01/31 04:31:46;;;;;;;9.70;3.95;;;;;;;-0.24;100.00;96715.34;5091513;28;24431;-73
2023/01/31 04:34:13;;;;;;;12.68;4.05;;;;;;;-0.27;100.00;96710.25;5097063;28;24444;-73
2023/01/31 04:36:39;;;;;;;11.98;4.40;;;;;;;-0.27;100.00;96715.34;5095023;28;24984;-73
2023/01/31 04:39:06;;;;;;;8.27;4.18;;;;;;;-0.25;100.00;96711.94;5098718;28;25039;-73
2023/01/31 04:41:34;;;;;;;9.70;4.53;;;;;;;-0.30;100.00;96708.59;5091700;28;24459;-73
2023/01/31 04:44:00;;;;;;;10.07;4.07;;;;;;;-0.30;100.00;96708.59;5098202;28;24449;-73
2023/01/31 04:46:27;;;;;;;9.67;3.70;;;;;;;-0.20;100.00;96706.81;5080859;28;25088;-73
2023/01/31 04:48:53;;;;;;;10.52;4.10;;;;;;;-0.15;100.00;96716.97;5100070;28;24442;-73
2023/01/31 04:51:20;;;;;;;13.63;4.25;;;;;;;-0.12;100.00;96716.97;5095279;28;24426;-74
2023/01/31 04:53:46;;;;;;;13.88;4.70;;;;;;;-0.10;100.00;96711.03;5088343;28;24434;-73
2023/01/31 04:56:13;;;;;;;8.90;4.30;;;;;;;-0.10;100.00;96718.66;5097469;28;24844;-73
2023/01/31 04:58:42;;;;;;;10.43;3.85;;;;;;;-0.09;100.00;96711.84;5091431;28;24461;-73
2023/01/31 05:01:08;;;;;;;8.95;3.78;;;;;;;-0.10;100.00;96705.09;5091850;28;24453;-74
2023/01/31 05:03:35;;;;;;;6.70;3.53;;;;;;;-0.12;100.00;96702.53;5093753;28;25008;-73
2023/01/31 05:06:01;;;;;;;9.43;3.83;;;;;;;-0.20;100.00;96708.53;5085519;28;24813;-74
2023/01/31 05:08:28;;;;;;;10.75;3.67;;;;;;;-0.19;100.00;96697.47;5100615;28;24437;-73
2023/01/31 05:10:58;;;;;;;10.27;3.85;;;;;;;-0.22;100.00;96700.03;5093168;28;26084;-75
2023/01/31 05:13:25;;;;;;;10.50;3.85;;;;;;;-0.24;100.00;96707.69;5081949;28;24468;-74
2023/01/31 05:15:53;;;;;;;12.30;4.72;;;;;;;-0.24;100.00;96707.69;5083830;28;24461;-74
2023/01/31 05:18:19;;;;;;;10.52;4.68;;;;;;;-0.18;100.00;96702.59;5094434;28;24437;-73
2023/01/31 05:20:48;;;;;;;12.50;4.22;;;;;;;-0.17;100.00;96713.63;5083517;28;24434;-73
2023/01/31 05:23:16;;;;;;;10.60;4.18;;;;;;;-0.18;100.00;96702.59;5089233;28;24495;-74
2023/01/31 05:25:43;;;;;;;13.68;5.20;;;;;;;-0.11;100.00;96704.25;5089811;28;24437;-73
2023/01/31 05:28:10;;;;;;;10.88;4.22;;;;;;;-0.15;100.00;96711.88;5084792;28;24532;-73
2023/01/31 05:30:37;;;;;;;9.82;4.50;;;;;;;-0.16;100.00;96713.59;5100851;28;24441;-73
2023/01/31 05:33:05;;;;;;;8.38;3.97;;;;;;;-0.23;100.00;96708.53;5090407;28;24441;-74
2023/01/31 05:35:31;;;;;;;8.57;3.60;;;;;;;-0.26;100.00;96705.19;5100497;28;24444;-73
2023/01/31 05:37:58;;;;;;;14.50;4.50;;;;;;;-0.31;100.00;96706.03;5091671;28;24493;-73
2023/01/31 05:40:24;;;;;;;12.80;5.47;;;;;;;-0.27;100.00;96717.91;5079599;28;24478;-74
2023/01/31 05:42:54;;;;;;;14.68;5.00;;;;;;;-0.43;100.00;96717.13;5082625;28;24438;-73
2023/01/31 05:45:21;;;;;;;9.73;3.78;;;;;;;-0.41;100.00;96720.50;5093162;28;24498;-74
2023/01/31 05:47:49;;;;;;;11.52;3.97;;;;;;;-0.41;100.00;96723.03;5089448;28;24461;-73
2023/01/31 05:50:17;;;;;;;8.18;4.20;;;;;;;-0.47;100.00;96722.25;5086539;28;24790;-74
2023/01/31 05:52:44;;;;;;;13.18;4.07;;;;;;;-0.52;100.00;96720.56;5092065;28;24566;-75
2023/01/31 05:55:10;;;;;;;9.43;3.93;;;;;;;-0.44;100.00;96719.69;5095488;28;24446;-75
2023/01/31 05:57:37;;;;;;;10.85;4.05;;;;;;;-0.43;100.00;96721.38;5085936;28;24499;-75
2023/01/31 06:00:04;;;;;;;7.15;4.07;;;;;;;-0.64;100.00;96725.69;5095672;28;24441;-75
2023/01/31 06:02:31;;;;;;;17.63;4.72;;;;;;;-0.76;100.00;96726.59;5095281;28;24440;-75
2023/01/31 06:04:58;;;;;;;7.70;3.88;;;;;;;-0.82;100.00;96728.28;5095363;28;25094;-75
2023/01/31 06:07:25;;;;;;;11.82;4.50;;;;;;;-0.91;100.00;96724.09;5088263;28;25002;-74
2023/01/31 06:09:52;;;;;;;7.45;3.60;;;;;;;-0.84;100.00;96717.28;5102752;28;24437;-75
2023/01/31 06:12:18;;;;;;;9.32;4.05;;;;;;;-0.84;100.00;96722.38;5091072;28;24437;-75
2023/01/31 06:14:47;;;;;;;9.82;4.20;;;;;;;-0.93;100.00;96725.78;5102042;28;24443;-75
2023/01/31 06:17:14;;;;;;;12.20;5.00;;;;;;;-1.00;100.00;96716.50;5091776;28;24434;-75
2023/01/31 06:19:40;;;;;;;11.35;4.75;;;;;;;-0.92;100.00;96726.66;5103452;28;24438;-74
2023/01/31 06:22:06;;;;;;;10.35;4.80;;;;;;;-0.98;100.00;96732.56;5092138;28;24471;-75
2023/01/31 06:24:34;;;;;;;15.73;4.18;;;;;;;-1.09;100.00;96724.97;5096168;28;24441;-75
2023/01/31 06:27:01;;;;;;;9.03;3.80;;;;;;;-1.03;100.00;96721.59;5094060;28;24433;-75
2023/01/31 06:29:27;;;;;;;13.50;5.82;;;;;;;-1.14;100.00;96733.47;5093871;28;24445;-75
2023/01/31 06:31:54;;;;;;;12.80;4.38;;;;;;;-1.24;100.00;96730.94;5094100;28;24430;-74
2023/01/31 06:34:20;;;;;;;10.55;4.65;;;;;;;-1.26;100.00;96731.75;5099088;28;24438;-75
2023/01/31 06:36:47;;;;;;;10.30;3.95;;;;;;;-1.23;100.00;96742.78;5093317;28;24442;-75
2023/01/31 06:39:13;;;;;;;9.38;4.25;;;;;;;-1.29;100.00;96745.34;5100478;28;24445;-74
2023/01/31 06:41:41;;;;;;;8.93;4.40;;;;;;;-1.28;100.00;96736.03;5091731;28;24529;-75
2023/01/31 06:44:08;;;;;;;17.38;6.70;;;;;;;-1.36;100.00;96752.97;5099290;28;24445;-75
2023/01/31 06:46:35;;;;;;;46.70;22.55;;;;;;;-1.43;100.00;96748.75;5100072;28;25008;-75
2023/01/31 06:49:01;;;;;;;35.13;18.30;;;;;;;-1.41;100.00;96754.66;5085709;28;24537;-75
2023/01/31 06:51:28;;;;;;;31.73;17.15;;;;;;;-1.38;100.00;96754.66;5102266;28;24434;-75
2023/01/31 06:53:55;;;;;;;25.73;12.35;;;;;;;-1.47;100.00;96747.91;5084101;28;24450;-75
2023/01/31 06:56:21;;;;;;;12.95;6.97;;;;;;;-1.44;100.00;96747.06;5091632;28;24441;-69
2023/01/31 06:58:49;;;;;;;17.33;10.90;;;;;;;-1.45;100.00;96746.19;5097803;28;24437;-74
2023/01/31 07:01:15;;;;;;;18.43;8.97;;;;;;;-1.44;100.00;96740.28;5107016;28;24455;-74
2023/01/31 07:03:42;;;;;;;21.70;10.52;;;;;;;-1.42;100.00;96735.19;5092403;28;25011;-74
2023/01/31 07:06:10;;;;;;;17.95;10.07;;;;;;;-1.46;100.00;96734.34;5094793;28;24975;-74
2023/01/31 07:08:37;;;;;;;15.75;8.77;;;;;;;-1.51;100.00;96736.03;5093219;28;24438;-72
2023/01/31 07:11:04;;;;;;;8.68;3.83;;;;;;;-1.60;100.00;96743.66;5093115;28;24437;-73
2023/01/31 07:13:31;;;;;;;10.70;4.50;;;;;;;-1.63;100.00;96747.06;5100744;28;24445;-72
2023/01/31 07:15:59;;;;;;;11.43;4.57;;;;;;;-1.66;100.00;96751.28;5084921;28;24510;-72
2023/01/31 07:18:25;;;;;;;7.60;3.78;;;;;;;-1.68;100.00;96753.81;5094621;28;24429;-72
2023/01/31 07:20:52;;;;;;;10.88;4.07;;;;;;;-1.68;100.00;96752.97;5088960;28;24447;-74
2023/01/31 07:23:18;;;;;;;11.00;3.90;;;;;;;-1.62;100.00;96760.59;5099911;28;24437;-74
2023/01/31 07:25:45;;;;;;;12.93;4.88;;;;;;;-1.53;100.00;96758.03;5099548;28;24446;-73
2023/01/31 07:28:12;;;;;;;10.40;5.50;;;;;;;-1.47;100.00;96745.34;5091642;28;25014;-73
2023/01/31 07:30:38;;;;;;;11.93;4.80;;;;;;;-1.40;100.00;96749.59;5098519;28;24430;-74
2023/01/31 07:33:06;;;;;;;7.55;4.50;;;;;;;-1.39;100.00;96748.72;5093082;28;24439;-74
2023/01/31 07:35:33;;;;;;;8.60;4.30;;;;;;;-1.35;100.00;96752.97;5101983;28;24434;-74
2023/01/31 07:37:59;;;;;;;8.50;4.20;;;;;;;-1.27;100.00;96761.41;5104068;28;24445;-74
2023/01/31 07:40:26;;;;;;;11.88;4.75;;;;;;;-1.05;100.00;96758.88;5093471;28;24436;-72
2023/01/31 07:42:58;;;;;;;14.88;5.78;;;;;;;-0.91;100.00;96756.31;5088998;28;24445;-74
2023/01/31 07:45:24;;;;;;;13.55;5.55;;;;;;;-0.90;100.00;96745.28;5082877;28;24445;-72
2023/01/31 07:47:51;;;;;;;14.88;5.85;;;;;;;-0.84;100.00;96747.81;5091673;28;24846;-73
2023/01/31 07:50:20;;;;;;;15.00;5.60;;;;;;;-0.69;100.00;96745.22;5095998;28;24433;-73
2023/01/31 07:52:47;;;;;;;10.82;4.93;;;;;;;-0.62;100.00;96746.91;5092895;28;24483;-73
2023/01/31 07:55:14;;;;;;;14.80;5.10;;;;;;;-0.49;100.00;96745.13;5089778;28;24438;-72
2023/01/31 07:57:40;;;;;;;10.45;4.75;;;;;;;-0.45;100.00;96754.44;5097614;28;24792;-72
2023/01/31 08:03:31;;;;;;;12.02;4.90;;;;;;;-0.42;100.00;96749.34;5092930;28;24788;-72
2023/01/31 08:05:41;;;;;;;15.65;5.75;;;;;;;-0.43;100.00;96757.84;5085487;28;24430;-74
2023/01/31 08:08:10;;;;;;;16.75;5.68;;;;;;;-0.46;100.00;96762.09;5101252;28;24442;-74
2023/01/31 08:10:37;;;;;;;29.77;7.72;;;;;;;-0.44;100.00;96768.91;5093115;28;24741;-74
2023/01/31 08:13:03;;;;;;;23.95;8.32;;;;;;;-0.46;100.00;96770.59;5100962;28;24442;-73
2023/01/31 08:15:30;;;;;;;17.83;8.23;;;;;;;-0.47;100.00;96763.81;5093685;28;24433;-74
2023/01/31 08:17:56;;;;;;;24.13;8.40;;;;;;;-0.47;100.00;96758.72;5102153;28;24445;-74
2023/01/31 08:20:23;;;;;;;23.67;7.10;;;;;;;-0.40;100.00;96757.84;5084803;28;24519;-74
2023/01/31 08:22:51;;;;;;;17.33;6.67;;;;;;;-0.37;100.00;96746.78;5086970;28;24472;-74
2023/01/31 08:25:17;;;;;;;14.85;5.82;;;;;;;-0.27;100.00;96751.81;5101151;28;24475;-74
2023/01/31 08:27:44;;;;;;;12.60;5.20;;;;;;;-0.23;100.00;96756.91;5092385;28;24434;-73
2023/01/31 08:30:12;;;;;;;13.45;4.55;;;;;;;-0.19;100.00;96751.78;5101171;28;24441;-73
2023/01/31 08:32:38;;;;;;;14.30;5.32;;;;;;;-0.18;100.00;96750.97;5099657;28;24426;-73
2023/01/31 08:35:06;;;;;;;10.47;4.33;;;;;;;-0.08;100.00;96754.28;5098766;28;24504;-72
2023/01/31 08:37:33;;;;;;;11.43;4.43;;;;;;;-0.02;100.00;96744.91;5100402;28;24533;-72
2023/01/31 08:40:01;;;;;;;10.10;4.38;;;;;;;-0.01;100.00;96743.22;5100627;28;24446;-73
2023/01/31 08:42:28;;;;;;;13.35;4.88;;;;;;;0.09;100.00;96741.47;5097833;28;24456;-73
2023/01/31 08:44:54;;;;;;;13.77;4.70;;;;;;;0.11;100.00;96745.72;5096762;28;24441;-73
2023/01/31 08:47:21;;;;;;;13.27;4.97;;;;;;;0.14;100.00;96748.22;5093443;28;24550;-73
2023/01/31 08:49:47;;;;;;;10.73;4.40;;;;;;;0.24;100.00;96739.66;5097859;28;24422;-73
2023/01/31 08:52:13;;;;;;;15.27;4.88;;;;;;;0.31;100.00;96737.91;5098099;28;24429;-72
2023/01/31 08:54:40;;;;;;;11.43;4.60;;;;;;;0.33;100.00;96730.25;5100776;28;24434;-73
2023/01/31 08:57:08;;;;;;;12.40;4.60;;;;;;;0.38;100.00;96738.72;5095446;28;25018;-73
2023/01/31 08:59:34;;;;;;;15.23;4.80;;;;;;;0.40;100.00;96731.91;5097244;28;24805;-73
2023/01/31 09:02:01;;;;;;;13.50;6.05;;;;;;;0.36;100.00;96733.63;5099493;28;24461;-73
2023/01/31 09:04:27;;;;;;;10.85;4.10;;;;;;;0.36;100.00;96735.34;5099189;28;24440;-73
2023/01/31 09:06:54;;;;;;;15.07;5.10;;;;;;;0.36;100.00;96727.69;5091028;28;24437;-73
2023/01/31 09:09:21;;;;;;;10.35;4.65;;;;;;;0.38;100.00;96738.72;5100050;28;24628;-73
2023/01/31 09:11:47;;;;;;;12.70;4.90;;;;;;;0.47;100.00;96736.94;5093572;28;25033;-73
2023/01/31 09:14:15;;;;;;;11.20;4.18;;;;;;;0.55;100.00;96736.03;5098226;28;24976;-73
2023/01/31 09:16:41;;;;;;;11.73;4.68;;;;;;;0.56;100.00;96737.75;5096070;28;24983;-73
2023/01/31 09:19:08;;;;;;;15.68;4.63;;;;;;;0.57;100.00;96729.22;5098914;28;24485;-73
2023/01/31 09:21:35;;;;;;;10.70;4.63;;;;;;;0.64;100.00;96729.16;5097941;28;25120;-73
2023/01/31 09:24:02;;;;;;;9.90;4.45;;;;;;;0.67;100.00;96725.75;5084112;28;24474;-73
2023/01/31 09:26:29;;;;;;;11.27;3.80;;;;;;;0.76;100.00;96732.47;5100249;28;24533;-72
2023/01/31 09:28:56;;;;;;;9.30;3.63;;;;;;;0.80;100.00;96729.88;5097819;28;24438;-72
2023/01/31 09:31:25;;;;;;;14.27;4.63;;;;;;;0.88;100.00;96728.09;5094369;28;24464;-72
2023/01/31 09:33:51;;;;;;;9.00;4.07;;;;;;;1.12;100.00;96719.34;5098915;28;24460;-72
2023/01/31 09:36:20;;;;;;;14.95;5.40;;;;;;;1.08;100.00;96717.69;5096037;28;24426;-72
2023/01/31 09:38:47;;;;;;;14.27;5.90;;;;;;;1.09;100.00;96709.19;5098297;28;24437;-72
2023/01/31 09:41:22;;;;;;;13.88;6.10;;;;;;;1.02;100.00;96709.25;5099085;28;24804;-72
2023/01/31 09:43:53;;;;;;;18.58;6.78;;;;;;;1.06;100.00;96708.38;5099239;28;24436;-72
2023/01/31 09:46:26;;;;;;;12.55;5.53;;;;;;;1.10;100.00;96710.88;5097455;28;24429;-72
2023/01/31 09:48:55;;;;;;;16.33;5.27;;;;;;;1.17;100.00;96717.59;5085992;28;24835;-72
2023/01/31 09:51:23;;;;;;;11.95;4.35;;;;;;;1.10;100.00;96715.13;5099154;28;24834;-72
2023/01/31 09:53:50;;;;;;;11.65;3.72;;;;;;;1.13;100.00;96703.19;5087251;28;24438;-72
2023/01/31 09:56:24;;;;;;;13.05;4.45;;;;;;;1.10;100.00;96717.69;5098246;28;24441;-72
2023/01/31 09:58:59;;;;;;;8.70;3.83;;;;;;;1.10;100.00;96726.16;5090137;28;24501;-72
2023/01/31 10:01:34;;;;;;;12.23;3.65;;;;;;;1.10;100.00;96728.72;5101700;28;24433;-72
2023/01/31 10:04:23;;;;;;;10.53;4.40;;;;;;;1.15;100.00;96724.44;5091527;28;24626;-72
2023/01/31 10:06:56;;;;;;;14.77;5.05;;;;;;;1.24;100.00;96723.47;5085520;28;24437;-72
2023/01/31 10:09:29;;;;;;;10.40;4.30;;;;;;;1.27;100.00;96723.44;5087704;28;24452;-71
2023/01/31 10:11:59;;;;;;;10.20;3.85;;;;;;;1.24;100.00;96722.63;5093035;28;24792;-72
2023/01/31 10:14:33;;;;;;;11.40;4.45;;;;;;;1.29;100.00;96728.53;5093945;28;25073;-72
2023/01/31 10:17:17;;;;;;;9.68;4.65;;;;;;;1.32;100.00;96736.16;5096602;28;25051;-72
2023/01/31 10:19:49;;;;;;;12.75;4.25;;;;;;;1.27;100.00;96735.38;5097730;28;24616;-72
2023/01/31 10:22:21;;;;;;;17.75;6.20;;;;;;;1.50;100.00;96743.59;5096215;28;24456;-71
2023/01/31 10:24:52;;;;;;;21.65;5.32;;;;;;;1.58;100.00;96744.34;5090125;28;24792;-71
2023/01/31 10:27:28;;;;;;;7.93;3.40;;;;;;;1.89;100.00;96741.41;5099857;28;24441;-71
2023/01/31 10:29:59;;;;;;;16.50;6.10;;;;;;;2.20;100.00;96744.41;5099229;28;24430;-71
2023/01/31 10:32:31;;;;;;;11.10;4.32;;;;;;;2.19;100.00;96735.06;5085819;28;24436;-71
2023/01/31 10:35:03;;;;;;;11.10;4.70;;;;;;;2.19;100.00;96740.16;5097374;28;24435;-71
2023/01/31 10:37:37;;;;;;;10.18;3.65;;;;;;;2.17;100.00;96739.34;5105002;28;24429;-72
2023/01/31 10:40:06;;;;;;;9.45;3.30;;;;;;;2.13;100.00;96730.88;5096746;28;24430;-71
2023/01/31 10:42:35;;;;;;;8.85;3.70;;;;;;;2.11;100.00;96724.94;5104520;28;24879;-72
2023/01/31 10:45:12;;;;;;;10.18;4.03;;;;;;;2.23;100.00;96733.31;5100271;28;24439;-72
2023/01/31 10:47:47;;;;;;;9.10;4.18;;;;;;;2.37;100.00;96722.00;5106876;28;24432;-71
2023/01/31 10:50:16;;;;;;;9.90;3.05;;;;;;;2.50;100.00;96720.09;5097041;28;25010;-72
2023/01/31 10:52:55;;;;;;;9.02;2.60;;;;;;;2.64;100.00;96722.44;5107066;28;24437;-71
2023/01/31 10:55:48;;;;;;;6.85;2.65;;;;;;;2.62;100.00;96714.75;5095385;28;24441;-70
2023/01/31 10:58:19;;;;;;;9.35;3.10;;;;;;;2.58;100.00;96715.69;5098130;28;24434;-70
2023/01/31 11:00:46;;;;;;;7.75;3.08;;;;;;;2.60;100.00;96713.97;5093432;28;24510;-71
2023/01/31 11:03:15;;;;;;;8.45;3.53;;;;;;;2.59;100.00;96719.94;5094309;28;25053;-71
2023/01/31 11:05:47;;;;;;;7.13;2.53;;;;;;;2.42;100.00;96720.22;5081138;28;24438;-70
2023/01/31 11:08:27;;;;;;;6.80;2.00;;;;;;;2.56;100.00;96709.78;5101335;28;24800;-71
2023/01/31 11:10:57;;;;;;;9.43;2.70;;;;;;;2.74;100.00;96707.75;5092067;28;24426;-71
2023/01/31 11:13:23;;;;;;;7.45;2.38;;;;;;;2.97;100.00;96709.94;5093280;28;24445;-70
2023/01/31 11:15:54;;;;;;;8.70;2.50;;;;;;;3.27;100.00;96711.09;5093882;28;24792;-71
2023/01/31 11:18:30;;;;;;;9.63;2.60;;;;;;;3.37;100.00;96704.91;5097327;28;24515;-70
2023/01/31 11:20:58;;;;;;;10.18;2.75;;;;;;;3.52;100.00;96702.06;5095089;28;24452;-70
2023/01/31 11:23:29;;;;;;;9.88;2.72;;;;;;;3.38;100.00;96683.56;5086474;28;24454;-70
2023/01/31 11:25:56;;;;;;;8.30;2.72;;;;;;;3.21;100.00;96683.88;5094210;28;24442;-71
2023/01/31 11:28:28;;;;;;;7.60;2.78;;;;;;;3.17;100.00;96677.13;5087865;28;24788;-70
2023/01/31 11:30:55;;;;;;;6.47;2.60;;;;;;;3.03;100.00;96677.38;5095522;28;25002;-71
2023/01/31 11:33:40;;;;;;;6.38;2.25;;;;;;;2.86;100.00;96664.91;5097172;28;24441;-71
2023/01/31 11:36:08;;;;;;;7.85;2.80;;;;;;;2.72;100.00;96653.25;5099485;28;24425;-71
2023/01/31 11:38:35;;;;;;;6.25;2.55;;;;;;;2.61;100.00;96664.50;5098437;28;24991;-70
2023/01/31 11:41:01;;;;;;;5.50;2.50;;;;;;;2.56;100.00;96662.88;5095145;28;24986;-70
2023/01/31 11:43:30;;;;;;;6.93;2.63;;;;;;;2.40;100.00;96662.28;5085503;28;25022;-70